Time;durP1;ratioP1;P1;durP2;ratioP2;P2;SDS_P1;SDS_P2;PMS_P1;PMS_P2;Temp;Humidity;BMP_temperature;BMP_pressure;BME280_temperature;BME280_humidity;BME280_pressure;Samples;Min_cycle;Max_cycle;Signal;HPM_P1;HPM_P2
2022/06/17 00:00:17;;;;;;;;;;;;;;;25.23;54.35;100036.34;7311270;19;130314;-37
2022/06/17 00:02:42;;;;;;;;;;;;;;;25.24;54.73;100045.88;7312340;19;129103;-37
2022/06/17 00:05:08;;;;;;;;;;;;;;;24.73;48.33;100043.94;7311738;19;130464;-37
2022/06/17 00:07:33;;;;;;;;;;;;;;;24.43;47.78;100037.16;7309658;19;130324;-36
2022/06/17 00:09:58;;;;;;;;;;;;;;;24.79;53.55;100037.25;7309927;19;129082;-36
2022/06/17 00:12:24;;;;;;;;;;;;;;;24.96;54.11;100039.88;7311028;19;128908;-37
2022/06/17 00:17:33;;;;;;;;;;;;;;;25.15;54.16;100044.16;7310157;19;130490;-36
2022/06/17 00:19:58;;;;;;;;;;;;;;;25.17;53.83;100042.22;7307620;19;129787;-36
2022/06/17 00:22:25;;;;;;;;;;;;;;;25.18;53.75;100036.78;7309846;19;130318;-37
2022/06/17 00:24:52;;;;;;;;;;;;;;;25.19;53.75;100034.97;7310632;19;130278;-37
2022/06/17 00:27:17;;;;;;;;;;;;;;;25.23;53.67;100036.34;7309082;19;130611;-36
2022/06/17 00:29:42;;;;;;;;;;;;;;;25.23;54.31;100036.34;7309260;19;130721;-36
2022/06/17 00:32:08;;;;;;;;;;;;;;;25.21;54.02;100040.91;7311931;19;129179;-36
2022/06/17 00:34:33;;;;;;;;;;;;;;;25.12;53.89;100028.69;7311763;19;130920;-37
2022/06/17 00:36:59;;;;;;;;;;;;;;;25.22;54.22;100034.69;7310826;19;129407;-36
2022/06/17 00:39:34;;;;;;;;;;;;;;;25.23;54.57;100046.84;7309451;19;129005;-37
2022/06/17 00:42:03;;;;;;;;;;;;;;;25.23;54.67;100054.75;7311005;19;129105;-36
2022/06/17 00:44:47;;;;;;;;;;;;;;;25.22;54.25;100050.47;7302831;19;129381;-36
2022/06/17 00:47:26;;;;;;;;;;;;;;;25.22;53.79;100046.03;7306195;19;130273;-37
2022/06/17 00:49:58;;;;;;;;;;;;;;;25.23;54.11;100046.84;7309156;19;129862;-37
2022/06/17 00:52:28;;;;;;;;;;;;;;;24.54;47.76;100033.53;7305109;19;129599;-37
2022/06/17 00:55:03;;;;;;;;;;;;;;;24.64;52.99;100038.72;7309739;19;129093;-37
2022/06/17 00:57:32;;;;;;;;;;;;;;;24.91;53.85;100030.78;7309836;19;130776;-37
2022/06/17 01:00:06;;;;;;;;;;;;;;;25.02;53.55;100041.09;7309903;19;129014;-37
2022/06/17 01:02:34;;;;;;;;;;;;;;;25.10;53.62;100042.00;7310955;19;129079;-36
2022/06/17 01:05:00;;;;;;;;;;;;;;;25.06;53.91;100031.91;7310831;19;129173;-36
2022/06/17 01:07:27;;;;;;;;;;;;;;;25.19;53.97;100045.50;7307188;19;130238;-37
2022/06/17 01:09:57;;;;;;;;;;;;;;;25.20;54.23;100049.81;7310345;19;129236;-36
2022/06/17 01:12:25;;;;;;;;;;;;;;;25.21;53.91;100044.38;7311771;19;131087;-37
2022/06/17 01:14:51;;;;;;;;;;;;;;;25.24;54.09;100048.50;7309066;19;129655;-37
2022/06/17 01:17:18;;;;;;;;;;;;;;;25.22;54.29;100061.00;7311017;19;130467;-37
2022/06/17 01:19:48;;;;;;;;;;;;;;;25.13;54.25;100046.13;7308008;19;130870;-37
2022/06/17 01:22:13;;;;;;;;;;;;;;;25.13;54.08;100051.38;7308163;19;130495;-37
2022/06/17 01:24:39;;;;;;;;;;;;;;;25.24;54.53;100053.75;7315206;19;130199;-37
2022/06/17 01:27:04;;;;;;;;;;;;;;;25.23;54.57;100062.66;7314121;19;129882;-36
2022/06/17 01:29:30;;;;;;;;;;;;;;;25.23;54.37;100062.66;7315481;19;131257;-36
2022/06/17 01:31:56;;;;;;;;;;;;;;;25.25;54.20;100063.34;7317653;19;129931;-37
2022/06/17 01:34:21;;;;;;;;;;;;;;;25.24;54.07;100059.03;7317453;19;130090;-36
2022/06/17 01:36:47;;;;;;;;;;;;;;;24.70;48.40;100064.44;7316853;19;130712;-37
2022/06/17 01:39:13;;;;;;;;;;;;;;;24.43;47.59;100063.44;7315716;19;130615;-37
2022/06/17 01:41:38;;;;;;;;;;;;;;;24.79;54.16;100058.28;7318514;19;129452;-36
2022/06/17 01:44:07;;;;;;;;;;;;;;;24.95;53.63;100063.72;7316797;19;129260;-37
2022/06/17 01:46:36;;;;;;;;;;;;;;;25.03;53.54;100058.50;7316473;19;130848;-37
2022/06/17 01:49:08;;;;;;;;;;;;;;;25.13;53.89;100056.63;7316210;19;129245;-36
2022/06/17 01:51:34;;;;;;;;;;;;;;;25.08;53.68;100048.38;7313784;19;129192;-37
2022/06/17 01:54:02;;;;;;;;;;;;;;;25.18;53.62;100068.38;7315347;19;130175;-36
2022/06/17 01:56:30;;;;;;;;;;;;;;;25.21;53.76;100070.69;7312336;19;131013;-36
2022/06/17 01:59:01;;;;;;;;;;;;;;;25.19;54.12;100067.38;7314386;19;130194;-37
2022/06/17 02:01:31;;;;;;;;;;;;;;;25.15;53.95;100062.59;7317575;19;128991;-37
2022/06/17 02:03:59;;;;;;;;;;;;;;;25.24;53.81;100075.66;7317173;19;129772;-37
2022/06/17 02:06:30;;;;;;;;;;;;;;;25.22;54.48;100067.06;7314254;19;130025;-36
2022/06/17 02:08:56;;;;;;;;;;;;;;;25.24;54.56;100069.56;7315305;19;129425;-37
2022/06/17 02:11:22;;;;;;;;;;;;;;;25.23;54.59;100071.38;7316716;19;128881;-36
2022/06/17 02:13:48;;;;;;;;;;;;;;;25.23;54.25;100073.19;7315877;19;129575;-36
2022/06/17 02:16:14;;;;;;;;;;;;;;;25.24;54.81;100077.44;7315790;19;130870;-37
2022/06/17 02:18:40;;;;;;;;;;;;;;;25.22;54.23;100084.69;7314561;19;129840;-37
2022/06/17 02:21:11;;;;;;;;;;;;;;;25.23;54.03;100089.81;7316444;19;129009;-36
2022/06/17 02:23:37;;;;;;;;;;;;;;;24.59;48.13;100093.53;7316022;19;129665;-37
2022/06/17 02:26:05;;;;;;;;;;;;;;;24.43;48.23;100104.66;7315394;19;129737;-36
2022/06/17 02:28:31;;;;;;;;;;;;;;;24.84;54.20;100106.03;7315146;19;129050;-37
2022/06/17 02:30:57;;;;;;;;;;;;;;;24.99;54.20;100112.44;7316038;19;129261;-36
2022/06/17 02:33:23;;;;;;;;;;;;;;;25.07;53.91;100115.13;7315305;19;129528;-36
2022/06/17 02:35:55;;;;;;;;;;;;;;;25.13;54.13;100118.00;7314332;19;130256;-36
2022/06/17 02:38:22;;;;;;;;;;;;;;;25.17;54.24;100115.91;7313643;19;131401;-37
2022/06/17 02:40:50;;;;;;;;;;;;;;;25.18;53.94;100117.53;7314407;19;129451;-36
2022/06/17 02:43:19;;;;;;;;;;;;;;;25.21;54.59;100122.50;7314789;19;130603;-37
2022/06/17 02:45:51;;;;;;;;;;;;;;;25.22;53.83;100116.28;7314433;19;129267;-36
2022/06/17 02:48:21;;;;;;;;;;;;;;;25.23;53.93;100117.91;7311085;19;129241;-37
2022/06/17 02:50:47;;;;;;;;;;;;;;;25.23;53.92;100120.56;7314815;19;129434;-37
2022/06/17 02:53:12;;;;;;;;;;;;;;;25.23;54.25;100117.91;7315890;19;130338;-37
2022/06/17 02:55:40;;;;;;;;;;;;;;;25.13;54.00;100104.00;7312074;19;129776;-37
2022/06/17 02:58:24;;;;;;;;;;;;;;;25.12;54.78;100103.16;7313228;19;130379;-37
2022/06/17 03:00:50;;;;;;;;;;;;;;;25.23;54.04;100128.44;7312020;19;129560;-37
2022/06/17 03:03:18;;;;;;;;;;;;;;;25.24;54.23;100123.03;7310202;19;130276;-36
2022/06/17 03:05:45;;;;;;;;;;;;;;;25.25;54.89;100126.50;7314467;19;130453;-36
2022/06/17 03:08:24;;;;;;;;;;;;;;;24.90;49.51;100129.09;7308491;19;130005;-37
2022/06/17 03:10:51;;;;;;;;;;;;;;;24.45;48.18;100129.84;7315205;19;129045;-37
2022/06/17 03:13:18;;;;;;;;;;;;;;;24.74;53.27;100131.53;7315226;19;131427;-36
2022/06/17 03:15:45;;;;;;;;;;;;;;;24.96;53.65;100125.84;7313246;19;130252;-37
2022/06/17 03:18:11;;;;;;;;;;;;;;;25.05;54.07;100122.34;7313504;19;129673;-37
2022/06/17 03:20:37;;;;;;;;;;;;;;;25.11;53.82;100121.75;7310227;19;129492;-37
2022/06/17 03:23:07;;;;;;;;;;;;;;;25.17;54.38;100126.44;7313995;19;129063;-37
2022/06/17 03:25:46;;;;;;;;;;;;;;;25.18;54.46;100117.53;7315596;19;131064;-37
2022/06/17 03:28:13;;;;;;;;;;;;;;;25.19;53.80;100111.28;7308762;19;128952;-37
2022/06/17 03:30:40;;;;;;;;;;;;;;;25.20;54.58;100120.84;7311702;19;129027;-36
2022/06/17 03:33:17;;;;;;;;;;;;;;;25.22;54.50;100116.28;7312390;19;130071;-37
2022/06/17 03:35:44;;;;;;;;;;;;;;;25.23;53.95;100115.28;7313726;19;130353;-36
2022/06/17 03:38:09;;;;;;;;;;;;;;;25.24;54.17;100120.41;7314313;19;128868;-36
2022/06/17 03:40:37;;;;;;;;;;;;;;;25.23;54.80;100131.06;7310343;19;129155;-37
2022/06/17 03:43:10;;;;;;;;;;;;;;;25.21;54.64;100127.75;7312173;19;129334;-37
2022/06/17 03:45:35;;;;;;;;;;;;;;;25.24;54.37;100132.72;7312928;19;130791;-37
2022/06/17 03:48:14;;;;;;;;;;;;;;;25.16;54.41;100108.97;7309621;19;128990;-36
2022/06/17 03:50:41;;;;;;;;;;;;;;;25.20;54.23;100126.97;7311697;19;129446;-37
2022/06/17 03:53:22;;;;;;;;;;;;;;;25.16;54.43;100132.66;7312799;19;129446;-37
2022/06/17 03:55:47;;;;;;;;;;;;;;;24.55;48.26;100144.75;7311037;19;130277;-37
2022/06/17 03:58:15;;;;;;;;;;;;;;;24.58;52.89;100145.28;7311450;19;130545;-37
2022/06/17 04:00:47;;;;;;;;;;;;;;;24.80;54.15;100123.06;7310700;19;129917;-36
2022/06/17 04:03:15;;;;;;;;;;;;;;;25.03;54.42;100140.06;7314128;19;130608;-37
2022/06/17 04:05:42;;;;;;;;;;;;;;;25.12;53.58;100136.56;7312685;19;129852;-37
2022/06/17 04:08:09;;;;;;;;;;;;;;;25.17;54.00;100142.22;7305771;19;130046;-36
2022/06/17 04:10:34;;;;;;;;;;;;;;;25.19;54.24;100153.38;7310328;19;129432;-36
2022/06/17 04:13:00;;;;;;;;;;;;;;;25.23;53.94;100157.41;7309071;19;129504;-37
2022/06/17 04:15:25;;;;;;;;;;;;;;;25.23;53.64;100154.75;7311592;19;129278;-36
2022/06/17 04:17:52;;;;;;;;;;;;;;;25.24;53.70;100148.50;7311495;19;129630;-36
2022/06/17 04:20:20;;;;;;;;;;;;;;;25.24;54.24;100148.50;7309312;19;129079;-37
2022/06/17 04:22:47;;;;;;;;;;;;;;;25.24;54.42;100161.66;7313206;19;131190;-37
2022/06/17 04:25:17;;;;;;;;;;;;;;;25.25;54.52;100172.06;7308130;19;131012;-37
2022/06/17 04:27:57;;;;;;;;;;;;;;;25.24;54.35;100166.94;7307460;19;129258;-37
2022/06/17 04:30:24;;;;;;;;;;;;;;;25.25;54.54;100155.44;7307167;19;129607;-36
2022/06/17 04:32:52;;;;;;;;;;;;;;;25.24;54.37;100164.31;7311591;19;130269;-37
2022/06/17 04:35:17;;;;;;;;;;;;;;;25.25;54.16;100172.06;7311998;19;130169;-37
2022/06/17 04:37:44;;;;;;;;;;;;;;;25.24;54.33;100170.41;7309697;19;129444;-37
2022/06/17 04:40:18;;;;;;;;;;;;;;;24.77;48.88;100170.69;7306911;19;129826;-37
2022/06/17 04:42:44;;;;;;;;;;;;;;;24.44;48.44;100175.50;7310367;19;130667;-37
2022/06/17 04:45:18;;;;;;;;;;;;;;;24.76;54.05;100172.47;7307963;19;131069;-37
2022/06/17 04:47:43;;;;;;;;;;;;;;;24.97;53.82;100175.72;7308345;19;130361;-37
2022/06/17 04:50:13;;;;;;;;;;;;;;;25.07;54.46;100173.81;7307727;19;129842;-37
2022/06/17 04:52:41;;;;;;;;;;;;;;;25.13;53.66;100183.78;7308038;19;131267;-36
2022/06/17 04:55:11;;;;;;;;;;;;;;;25.07;54.06;100163.31;7311378;19;130274;-36
2022/06/17 04:57:38;;;;;;;;;;;;;;;25.19;54.60;100177.06;7306574;19;129397;-37
2022/06/17 05:00:03;;;;;;;;;;;;;;;25.21;54.38;100178.59;7308031;19;131362;-36
2022/06/17 05:02:30;;;;;;;;;;;;;;;25.24;54.60;100169.56;7309673;19;130029;-37
2022/06/17 05:04:57;;;;;;;;;;;;;;;25.23;54.52;100173.19;7310595;19;130349;-37
2022/06/17 05:07:23;;;;;;;;;;;;;;;25.23;53.95;100183.72;7307690;19;129046;-37
2022/06/17 05:09:48;;;;;;;;;;;;;;;25.24;54.58;100185.34;7308433;19;129177;-37
2022/06/17 05:12:17;;;;;;;;;;;;;;;25.22;54.08;100182.88;7306536;19;131035;-37
2022/06/17 05:14:54;;;;;;;;;;;;;;;25.24;54.37;100190.63;7296706;19;131996;-37
2022/06/17 05:17:19;;;;;;;;;;;;;;;25.24;54.52;100191.47;7309847;19;129189;-36
2022/06/17 05:19:45;;;;;;;;;;;;;;;25.23;54.37;100200.34;7305781;19;130269;-37
2022/06/17 05:22:15;;;;;;;;;;;;;;;25.23;54.81;100195.06;7311864;19;130130;-37
2022/06/17 05:24:41;;;;;;;;;;;;;;;24.98;49.48;100189.69;7310041;19;129684;-37
2022/06/17 05:27:07;;;;;;;;;;;;;;;24.51;47.94;100195.97;7310394;19;129036;-37
2022/06/17 05:29:32;;;;;;;;;;;;;;;24.69;53.39;100195.09;7307818;19;129382;-37
2022/06/17 05:31:57;;;;;;;;;;;;;;;24.92;54.14;100190.28;7311609;19;129551;-37
2022/06/17 05:34:23;;;;;;;;;;;;;;;25.04;53.63;100184.66;7310190;19;131263;-37
2022/06/17 05:36:48;;;;;;;;;;;;;;;25.10;53.96;100196.41;7311326;19;129652;-37
2022/06/17 05:39:14;;;;;;;;;;;;;;;25.14;54.35;100192.50;7308868;19;129350;-37
2022/06/17 05:41:39;;;;;;;;;;;;;;;25.16;53.69;100193.16;7309311;19;131343;-37
2022/06/17 05:44:04;;;;;;;;;;;;;;;25.09;54.13;100181.59;7307800;19;130271;-37
2022/06/17 05:46:29;;;;;;;;;;;;;;;25.17;54.45;100195.66;7310738;19;130201;-37
2022/06/17 05:48:55;;;;;;;;;;;;;;;25.19;54.63;100188.44;7308762;19;129301;-37
2022/06/17 05:51:20;;;;;;;;;;;;;;;25.18;54.42;100186.78;7310214;19;129307;-37
2022/06/17 05:53:45;;;;;;;;;;;;;;;25.11;54.63;100174.38;7310078;19;130447;-37
2022/06/17 05:56:10;;;;;;;;;;;;;;;25.22;54.54;100187.34;7309178;19;129018;-37
2022/06/17 05:58:36;;;;;;;;;;;;;;;25.20;54.06;100194.53;7310012;19;129591;-37
2022/06/17 06:01:01;;;;;;;;;;;;;;;25.20;54.25;100199.81;7309547;19;130229;-36
2022/06/17 06:03:27;;;;;;;;;;;;;;;25.20;54.75;100189.28;7309641;19;129176;-37
2022/06/17 06:05:53;;;;;;;;;;;;;;;25.20;54.05;100198.00;7309768;19;130983;-37
2022/06/17 06:08:18;;;;;;;;;;;;;;;25.22;54.83;100197.84;7307113;19;129455;-36
2022/06/17 06:10:43;;;;;;;;;;;;;;;24.84;49.33;100203.34;7312251;19;130731;-36
2022/06/17 06:13:14;;;;;;;;;;;;;;;24.43;47.96;100208.03;7315932;19;130171;-37
2022/06/17 06:15:41;;;;;;;;;;;;;;;24.73;53.78;100201.72;7317174;19;129052;-37
2022/06/17 06:18:11;;;;;;;;;;;;;;;24.92;54.53;100211.31;7312594;19;129482;-37
2022/06/17 06:20:36;;;;;;;;;;;;;;;25.02;54.18;100212.09;7310423;19;130636;-36
2022/06/17 06:23:01;;;;;;;;;;;;;;;25.09;54.20;100207.91;7316347;19;130231;-36
2022/06/17 06:25:27;;;;;;;;;;;;;;;25.15;54.41;100212.56;7315063;19;129056;-37
2022/06/17 06:27:52;;;;;;;;;;;;;;;25.16;53.71;100216.84;7312209;19;129338;-37
2022/06/17 06:30:27;;;;;;;;;;;;;;;25.18;54.45;100217.53;7313949;19;130338;-37
2022/06/17 06:32:54;;;;;;;;;;;;;;;25.18;54.45;100212.28;7312701;19;129192;-37
2022/06/17 06:35:21;;;;;;;;;;;;;;;25.20;54.28;100218.22;7317441;19;128953;-36
2022/06/17 06:37:46;;;;;;;;;;;;;;;25.19;54.29;100211.28;7316081;19;129899;-36
2022/06/17 06:40:12;;;;;;;;;;;;;;;25.20;54.14;100216.44;7313616;19;130225;-37
2022/06/17 06:42:37;;;;;;;;;;;;;;;25.20;54.54;100226.13;7316369;19;129540;-37
2022/06/17 06:45:02;;;;;;;;;;;;;;;25.19;54.11;100227.09;7315696;19;129279;-36
2022/06/17 06:47:28;;;;;;;;;;;;;;;25.19;54.48;100224.44;7316000;19;129461;-36
2022/06/17 06:49:53;;;;;;;;;;;;;;;25.20;54.08;100226.13;7313934;19;129664;-37
2022/06/17 06:52:18;;;;;;;;;;;;;;;25.18;54.84;100228.91;7315188;19;131663;-37
2022/06/17 06:54:44;;;;;;;;;;;;;;;25.19;54.71;100230.53;7316195;19;129070;-37
2022/06/17 06:57:09;;;;;;;;;;;;;;;24.69;48.00;100236.34;7314226;19;129372;-36
2022/06/17 06:59:35;;;;;;;;;;;;;;;24.43;47.89;100239.56;7313560;19;129135;-36
2022/06/17 07:02:00;;;;;;;;;;;;;;;24.74;53.67;100244.63;7314038;19;129763;-36
2022/06/17 07:04:25;;;;;;;;;;;;;;;24.91;53.75;100242.06;7312262;19;129842;-37
2022/06/17 07:06:50;;;;;;;;;;;;;;;25.01;53.68;100247.25;7315579;19;129300;-37
2022/06/17 07:09:16;;;;;;;;;;;;;;;25.09;54.23;100250.00;7311470;19;130451;-37
2022/06/17 07:11:41;;;;;;;;;;;;;;;25.11;53.81;100238.34;7315215;19;130432;-36
2022/06/17 07:14:06;;;;;;;;;;;;;;;25.15;53.96;100241.53;7315833;19;130325;-36
2022/06/17 07:16:32;;;;;;;;;;;;;;;25.17;54.27;100250.09;7313690;19;129733;-37
2022/06/17 07:18:57;;;;;;;;;;;;;;;25.16;54.03;100256.31;7313704;19;129620;-37
2022/06/17 07:21:22;;;;;;;;;;;;;;;25.17;54.27;100263.28;7313274;19;129766;-37
2022/06/17 07:23:47;;;;;;;;;;;;;;;25.18;54.21;100263.13;7314547;19;128892;-36
2022/06/17 07:26:16;;;;;;;;;;;;;;;25.17;54.10;100258.81;7315196;19;129270;-37
2022/06/17 07:28:41;;;;;;;;;;;;;;;25.17;54.02;100258.00;7306640;19;130384;-36
2022/06/17 07:31:07;;;;;;;;;;;;;;;25.19;54.84;100250.75;7311683;19;131152;-36
2022/06/17 07:33:34;;;;;;;;;;;;;;;25.19;54.62;100256.03;7313826;19;129116;-37
2022/06/17 07:36:01;;;;;;;;;;;;;;;25.18;54.94;100254.38;7311055;19;129597;-37
2022/06/17 07:41:13;;;;;;;;;;;;;;;25.19;54.72;100261.28;7311567;19;129318;-37
2022/06/17 07:43:39;;;;;;;;;;;;;;;24.48;47.89;100258.38;7314968;19;130988;-36
2022/06/17 07:46:05;;;;;;;;;;;;;;;24.53;52.69;100262.38;7309613;19;130625;-37
2022/06/17 07:48:30;;;;;;;;;;;;;;;24.83;54.64;100272.66;7309904;19;131385;-37
2022/06/17 07:50:58;;;;;;;;;;;;;;;24.95;54.04;100264.47;7315097;19;129715;-36
2022/06/17 07:53:24;;;;;;;;;;;;;;;25.05;54.56;100275.78;7311723;19;130236;-37
2022/06/17 07:55:50;;;;;;;;;;;;;;;25.10;54.55;100272.72;7313352;19;129135;-37
2022/06/17 07:58:15;;;;;;;;;;;;;;;25.12;54.01;100266.31;7303866;19;130196;-36
2022/06/17 08:00:42;;;;;;;;;;;;;;;25.15;54.39;100267.84;7306911;19;130116;-36
2022/06/17 08:03:08;;;;;;;;;;;;;;;25.17;53.89;100271.16;7311582;19;129399;-37
2022/06/17 08:05:34;;;;;;;;;;;;;;;25.18;53.97;100281.53;7310808;19;129640;-36
2022/06/17 08:08:03;;;;;;;;;;;;;;;25.19;54.54;100275.28;7301590;19;130282;-37
2022/06/17 08:10:30;;;;;;;;;;;;;;;25.19;54.05;100277.09;7308479;19;130255;-37
2022/06/17 08:12:55;;;;;;;;;;;;;;;25.19;54.45;100288.44;7306461;19;129419;-36
2022/06/17 08:15:21;;;;;;;;;;;;;;;25.18;54.89;100286.81;7311994;19;129363;-37
2022/06/17 08:17:46;;;;;;;;;;;;;;;25.12;54.78;100278.66;7306995;19;129590;-37
2022/06/17 08:20:16;;;;;;;;;;;;;;;25.19;54.49;100292.88;7309239;19;129614;-37
2022/06/17 08:22:42;;;;;;;;;;;;;;;25.18;54.61;100291.22;7307555;19;130713;-37
2022/06/17 08:25:08;;;;;;;;;;;;;;;25.17;54.97;100289.59;7310356;19;129281;-37
2022/06/17 08:27:40;;;;;;;;;;;;;;;24.83;49.71;100285.81;7308001;19;129840;-37
2022/06/17 08:30:05;;;;;;;;;;;;;;;24.43;47.91;100286.88;7309757;19;129628;-36
2022/06/17 08:32:53;;;;;;;;;;;;;;;24.63;53.81;100290.28;7309532;19;129478;-36
2022/06/17 08:35:18;;;;;;;;;;;;;;;24.78;54.35;100280.16;7307212;19;129222;-36
2022/06/17 08:37:44;;;;;;;;;;;;;;;24.98;54.41;100294.91;7310772;19;130174;-36
2022/06/17 08:40:21;;;;;;;;;;;;;;;25.08;54.41;100306.22;7302721;19;130193;-37
2022/06/17 08:43:07;;;;;;;;;;;;;;;25.11;54.59;100312.03;7309515;19;129457;-37
2022/06/17 08:45:40;;;;;;;;;;;;;;;25.14;54.40;100303.84;7309878;19;129798;-37
2022/06/17 08:48:09;;;;;;;;;;;;;;;25.16;54.30;100303.69;7301437;19;129595;-37
2022/06/17 08:50:37;;;;;;;;;;;;;;;25.15;54.50;100307.31;7309857;19;130225;-37
2022/06/17 08:53:21;;;;;;;;;;;;;;;25.17;54.13;100308.00;7304860;19;129128;-36
2022/06/17 08:55:49;;;;;;;;;;;;;;;25.17;54.45;100311.44;7312684;19;129514;-36
2022/06/17 08:58:36;;;;;;;;;;;;;;;25.17;54.67;100313.25;7305743;19;130600;-37
2022/06/17 09:01:16;;;;;;;;;;;;;;;25.19;54.24;100308.66;7309852;19;130513;-37
2022/06/17 09:04:04;;;;;;;;;;;;;;;25.18;54.53;100317.53;7311334;19;130409;-36
2022/06/17 09:06:41;;;;;;;;;;;;;;;25.15;54.46;100313.41;7307570;19;129457;-37
2022/06/17 09:09:33;;;;;;;;;;;;;;;25.17;54.77;100310.63;7307418;19;130297;-36
2022/06/17 09:12:21;;;;;;;;;;;;;;;25.16;54.54;100311.59;7312036;19;130532;-37
2022/06/17 09:14:55;;;;;;;;;;;;;;;24.47;48.32;100305.81;7310431;19;129625;-37
2022/06/17 09:17:20;;;;;;;;;;;;;;;24.54;53.91;100311.34;7309807;19;131697;-37
2022/06/17 09:19:46;;;;;;;;;;;;;;;24.81;54.47;100312.28;7308303;19;130136;-37
2022/06/17 09:22:25;;;;;;;;;;;;;;;24.93;54.67;100311.13;7310212;19;130349;-37
2022/06/17 09:24:51;;;;;;;;;;;;;;;25.02;54.18;100306.81;7312117;19;129582;-37
2022/06/17 09:27:16;;;;;;;;;;;;;;;25.08;53.92;100300.97;7309129;19;129262;-37
2022/06/17 09:29:46;;;;;;;;;;;;;;;25.11;54.51;100298.03;7307909;19;130074;-36
2022/06/17 09:32:20;;;;;;;;;;;;;;;25.12;54.39;100308.41;7311228;19;130290;-36
2022/06/17 09:35:08;;;;;;;;;;;;;;;25.14;53.90;100297.78;7310499;19;129047;-36
2022/06/17 09:37:33;;;;;;;;;;;;;;;25.15;54.50;100296.78;7309872;19;129000;-36
2022/06/17 09:40:02;;;;;;;;;;;;;;;25.15;54.38;100288.88;7308570;19;130117;-36
2022/06/17 09:42:27;;;;;;;;;;;;;;;25.15;54.95;100302.06;7309884;19;130512;-37
2022/06/17 09:44:59;;;;;;;;;;;;;;;25.16;54.65;100303.69;7313205;19;129755;-36
2022/06/17 09:47:29;;;;;;;;;;;;;;;25.13;54.90;100294.31;7315668;19;130167;-36
2022/06/17 09:49:57;;;;;;;;;;;;;;;25.12;54.90;100291.81;7315706;19;130890;-37
2022/06/17 09:52:31;;;;;;;;;;;;;;;25.13;54.52;100298.72;7314711;19;129475;-36
2022/06/17 09:54:56;;;;;;;;;;;;;;;25.13;54.36;100301.38;7318164;19;131033;-36
2022/06/17 09:57:24;;;;;;;;;;;;;;;25.05;51.50;100296.84;7317124;19;129190;-37
2022/06/17 09:59:54;;;;;;;;;;;;;;;24.43;48.62;100288.66;7314240;19;129905;-37
2022/06/17 10:02:26;;;;;;;;;;;;;;;24.53;53.92;100283.41;7317183;19;129634;-36
2022/06/17 10:04:52;;;;;;;;;;;;;;;24.79;54.38;100279.22;7311776;19;128939;-37
2022/06/17 10:07:23;;;;;;;;;;;;;;;24.91;54.14;100278.03;7311902;19;129838;-37
2022/06/17 10:10:07;;;;;;;;;;;;;;;25.00;54.57;100282.44;7311757;19;129125;-37
2022/06/17 10:12:36;;;;;;;;;;;;;;;25.08;54.34;100287.81;7309296;19;129538;-37
2022/06/17 10:15:09;;;;;;;;;;;;;;;25.10;54.36;100285.88;7316922;19;129531;-37
2022/06/17 10:20:33;;;;;;;;;;;;;;;25.11;54.82;100275.19;7314733;19;129010;-37
2022/06/17 10:23:01;;;;;;;;;;;;;;;25.13;54.53;100272.41;7311426;19;130422;-37
2022/06/17 10:25:41;;;;;;;;;;;;;;;25.03;54.90;100259.31;7316804;19;129098;-37
2022/06/17 10:28:06;;;;;;;;;;;;;;;25.12;54.31;100265.50;7310698;19;129763;-37
2022/06/17 10:30:31;;;;;;;;;;;;;;;25.12;54.77;100265.50;7314303;19;130525;-37
2022/06/17 10:32:57;;;;;;;;;;;;;;;25.12;54.46;100266.31;7317506;19;129846;-37
2022/06/17 10:35:30;;;;;;;;;;;;;;;25.01;54.77;100242.00;7316136;19;129233;-37
2022/06/17 10:37:57;;;;;;;;;;;;;;;25.10;54.80;100256.91;7316017;19;130214;-36
2022/06/17 10:40:24;;;;;;;;;;;;;;;25.10;54.79;100252.50;7313738;19;130118;-37
2022/06/17 10:42:52;;;;;;;;;;;;;;;24.70;49.77;100248.50;7316027;19;129256;-37
2022/06/17 10:45:18;;;;;;;;;;;;;;;24.37;48.59;100242.78;7315905;19;130148;-37
2022/06/17 10:47:46;;;;;;;;;;;;;;;24.58;54.17;100241.75;7313590;19;129272;-37
2022/06/17 10:50:14;;;;;;;;;;;;;;;24.79;54.63;100237.94;7314139;19;130805;-37
2022/06/17 10:52:43;;;;;;;;;;;;;;;24.91;54.86;100243.84;7315928;19;129715;-37
2022/06/17 10:55:17;;;;;;;;;;;;;;;24.99;54.52;100249.22;7314685;19;130824;-37
2022/06/17 10:58:02;;;;;;;;;;;;;;;25.04;54.53;100242.53;7313285;19;128935;-37
2022/06/17 11:00:28;;;;;;;;;;;;;;;25.08;54.17;100240.44;7313100;19;130426;-37
2022/06/17 11:02:53;;;;;;;;;;;;;;;25.10;54.79;100246.41;7316427;19;130300;-37
2022/06/17 11:05:29;;;;;;;;;;;;;;;25.10;54.52;100231.44;7317322;19;129864;-37
2022/06/17 11:07:55;;;;;;;;;;;;;;;25.12;54.49;100229.47;7313093;19;129777;-37
2022/06/17 11:10:23;;;;;;;;;;;;;;;25.10;54.65;100230.59;7313190;19;129505;-37
2022/06/17 11:12:54;;;;;;;;;;;;;;;25.10;54.72;100230.59;7313624;19;129460;-37
2022/06/17 11:15:28;;;;;;;;;;;;;;;25.00;54.91;100203.53;7314860;19;128969;-36
2022/06/17 11:17:57;;;;;;;;;;;;;;;25.10;55.04;100220.09;7312797;19;130622;-37
2022/06/17 11:20:24;;;;;;;;;;;;;;;25.10;54.84;100227.97;7311982;19;129553;-37
2022/06/17 11:23:03;;;;;;;;;;;;;;;25.10;54.62;100215.66;7310418;19;130542;-37
2022/06/17 11:25:31;;;;;;;;;;;;;;;25.09;54.47;100218.44;7313759;19;129026;-37
2022/06/17 11:28:12;;;;;;;;;;;;;;;24.82;50.61;100218.44;7307782;19;129224;-37
2022/06/17 11:30:49;;;;;;;;;;;;;;;24.36;48.51;100208.75;7312002;19;130808;-37
2022/06/17 11:33:25;;;;;;;;;;;;;;;24.56;54.19;100222.66;7309430;19;130441;-37
2022/06/17 11:35:59;;;;;;;;;;;;;;;24.78;54.74;100217.88;7311659;19;129457;-37
2022/06/17 11:38:25;;;;;;;;;;;;;;;24.91;54.39;100212.28;7312560;19;129449;-37
2022/06/17 11:40:52;;;;;;;;;;;;;;;24.97;54.06;100203.81;7312524;19;129190;-37
2022/06/17 11:43:26;;;;;;;;;;;;;;;25.03;54.37;100198.78;7313680;19;129285;-36
2022/06/17 11:45:51;;;;;;;;;;;;;;;25.06;54.90;100197.66;7313624;19;129117;-37
2022/06/17 11:48:22;;;;;;;;;;;;;;;25.09;54.61;100192.13;7312391;19;129115;-37
2022/06/17 11:51:01;;;;;;;;;;;;;;;25.07;54.86;100200.13;7314004;19;129953;-36
2022/06/17 11:53:28;;;;;;;;;;;;;;;25.08;55.04;100200.97;7311642;19;130289;-37
2022/06/17 11:55:53;;;;;;;;;;;;;;;25.09;54.88;100202.66;7312401;19;130077;-36
2022/06/17 11:58:19;;;;;;;;;;;;;;;25.07;55.25;100194.88;7313666;19;129638;-36
2022/06/17 12:00:48;;;;;;;;;;;;;;;25.07;54.38;100188.81;7310646;19;130753;-37
2022/06/17 12:03:15;;;;;;;;;;;;;;;25.07;54.86;100200.13;7314019;19;129769;-37
2022/06/17 12:05:41;;;;;;;;;;;;;;;25.08;54.98;100195.72;7314622;19;129127;-37
2022/06/17 12:08:24;;;;;;;;;;;;;;;25.08;54.73;100185.19;7310751;19;130946;-37
2022/06/17 12:10:58;;;;;;;;;;;;;;;25.08;54.97;100190.44;7313024;19;130161;-36
2022/06/17 12:13:27;;;;;;;;;;;;;;;24.71;50.14;100173.91;7313769;19;129317;-36
2022/06/17 12:16:14;;;;;;;;;;;;;;;24.32;48.60;100181.91;7312466;19;130981;-37
2022/06/17 12:18:58;;;;;;;;;;;;;;;24.56;53.95;100175.34;7309072;19;130960;-36
2022/06/17 12:21:45;;;;;;;;;;;;;;;24.78;54.30;100181.06;7312850;19;132018;-37
2022/06/17 12:24:10;;;;;;;;;;;;;;;24.91;54.42;100178.91;7312674;19;130575;-37
2022/06/17 12:26:56;;;;;;;;;;;;;;;24.98;54.13;100174.72;7311857;19;129046;-36
2022/06/17 12:29:38;;;;;;;;;;;;;;;25.01;54.45;100171.81;7309533;19;130330;-36
2022/06/17 12:32:06;;;;;;;;;;;;;;;25.05;54.76;100172.34;7312780;19;130230;-36
2022/06/17 12:34:34;;;;;;;;;;;;;;;25.06;54.92;100176.59;7308277;19;130127;-37
2022/06/17 12:37:04;;;;;;;;;;;;;;;25.07;54.42;100167.75;7312691;19;129230;-36
2022/06/17 12:39:35;;;;;;;;;;;;;;;24.97;54.72;100156.47;7303853;19;129955;-37
2022/06/17 12:42:04;;;;;;;;;;;;;;;25.06;54.84;100166.09;7312137;19;130605;-36
2022/06/17 12:44:47;;;;;;;;;;;;;;;25.04;55.21;100174.13;7312354;19;129621;-37